sensor_id;sensor_type;location;lat;lon;timestamp;pressure;altitude;pressure_sealevel;temperature;humidity
6208;BME280;3137;51.550;7.060;2023-07-31T00:02:13;100739.44;;;15.36;92.04
6208;BME280;3137;51.550;7.060;2023-07-31T00:04:40;100733.50;;;15.41;91.31
6208;BME280;3137;51.550;7.060;2023-07-31T00:07:06;100731.72;;;15.33;91.59
6208;BME280;3137;51.550;7.060;2023-07-31T00:09:33;100728.19;;;15.33;91.38
6208;BME280;3137;51.550;7.060;2023-07-31T00:12:00;100724.78;;;15.39;91.78
6208;BME280;3137;51.550;7.060;2023-07-31T00:14:26;100728.00;;;15.34;92.51
6208;BME280;3137;51.550;7.060;2023-07-31T00:16:52;100722.38;;;15.44;92.73
6208;BME280;3137;51.550;7.060;2023-07-31T00:19:19;100716.94;;;15.52;93.18
6208;BME280;3137;51.550;7.060;2023-07-31T00:21:45;100716.09;;;15.66;93.49
6208;BME280;3137;51.550;7.060;2023-07-31T00:24:12;100719.28;;;15.70;93.91
6208;BME280;3137;51.550;7.060;2023-07-31T00:26:38;100707.34;;;15.79;93.85
6208;BME280;3137;51.550;7.060;2023-07-31T00:29:05;100705.22;;;15.89;93.45
6208;BME280;3137;51.550;7.060;2023-07-31T00:31:31;100708.22;;;15.94;93.00
6208;BME280;3137;51.550;7.060;2023-07-31T00:33:58;100703.72;;;16.01;93.27
6208;BME280;3137;51.550;7.060;2023-07-31T00:36:24;100712.66;;;16.02;92.58
6208;BME280;3137;51.550;7.060;2023-07-31T00:38:51;100703.34;;;16.04;92.46
6208;BME280;3137;51.550;7.060;2023-07-31T00:41:17;100708.75;;;16.04;92.89
6208;BME280;3137;51.550;7.060;2023-07-31T00:43:44;100711.94;;;16.08;92.66
6208;BME280;3137;51.550;7.060;2023-07-31T00:46:10;100711.25;;;16.06;92.52
6208;BME280;3137;51.550;7.060;2023-07-31T00:48:37;100707.72;;;16.05;92.60
6208;BME280;3137;51.550;7.060;2023-07-31T00:51:07;100705.31;;;16.10;91.95
6208;BME280;3137;51.550;7.060;2023-07-31T00:53:34;100705.31;;;16.10;91.82
6208;BME280;3137;51.550;7.060;2023-07-31T00:56:00;100701.31;;;16.06;91.91
6208;BME280;3137;51.550;7.060;2023-07-31T00:58:27;100706.78;;;16.13;91.71
6208;BME280;3137;51.550;7.060;2023-07-31T01:00:53;100692.72;;;16.17;91.09
6208;BME280;3137;51.550;7.060;2023-07-31T01:03:20;100700.81;;;16.17;91.50
6208;BME280;3137;51.550;7.060;2023-07-31T01:05:54;100709.56;;;16.19;91.28
6208;BME280;3137;51.550;7.060;2023-07-31T01:11:15;100705.19;;;16.18;90.75
6208;BME280;3137;51.550;7.060;2023-07-31T01:13:44;100706.94;;;16.26;90.79
6208;BME280;3137;51.550;7.060;2023-07-31T01:16:10;100705.31;;;16.25;90.58
6208;BME280;3137;51.550;7.060;2023-07-31T01:18:37;100705.94;;;16.27;90.29
6208;BME280;3137;51.550;7.060;2023-07-31T01:21:21;100696.09;;;16.19;90.22
6208;BME280;3137;51.550;7.060;2023-07-31T01:24:01;100704.25;;;16.26;90.21
6208;BME280;3137;51.550;7.060;2023-07-31T01:26:38;100700.72;;;16.25;89.98
6208;BME280;3137;51.550;7.060;2023-07-31T01:29:10;100708.19;;;16.23;90.08
6208;BME280;3137;51.550;7.060;2023-07-31T01:31:41;100703.91;;;16.29;89.88
6208;BME280;3137;51.550;7.060;2023-07-31T01:34:09;100705.19;;;16.33;89.48
6208;BME280;3137;51.550;7.060;2023-07-31T01:36:37;100695.59;;;16.30;89.52
6208;BME280;3137;51.550;7.060;2023-07-31T01:39:04;100697.16;;;16.39;89.00
6208;BME280;3137;51.550;7.060;2023-07-31T01:41:31;100693.16;;;16.35;89.22
6208;BME280;3137;51.550;7.060;2023-07-31T01:43:57;100696.13;;;16.40;88.80
6208;BME280;3137;51.550;7.060;2023-07-31T01:46:24;100693.16;;;16.35;88.39
6208;BME280;3137;51.550;7.060;2023-07-31T01:48:50;100691.69;;;16.33;88.86
6208;BME280;3137;51.550;7.060;2023-07-31T01:51:18;100696.13;;;16.40;88.24
6208;BME280;3137;51.550;7.060;2023-07-31T01:53:44;100687.66;;;16.43;88.28
6208;BME280;3137;51.550;7.060;2023-07-31T01:56:11;100694.28;;;16.41;88.01
6208;BME280;3137;51.550;7.060;2023-07-31T01:58:37;100695.56;;;16.45;87.40
6208;BME280;3137;51.550;7.060;2023-07-31T02:01:04;100685.97;;;16.42;87.05
6208;BME280;3137;51.550;7.060;2023-07-31T02:03:33;100690.34;;;16.43;87.68
6208;BME280;3137;51.550;7.060;2023-07-31T02:05:59;100684.94;;;16.43;87.36
6208;BME280;3137;51.550;7.060;2023-07-31T02:08:26;100683.09;;;16.44;86.83
6208;BME280;3137;51.550;7.060;2023-07-31T02:10:53;100685.97;;;16.42;86.46
6208;BME280;3137;51.550;7.060;2023-07-31T02:13:20;100674.94;;;16.37;86.85
6208;BME280;3137;51.550;7.060;2023-07-31T02:15:46;100673.13;;;16.44;87.01
6208;BME280;3137;51.550;7.060;2023-07-31T02:18:13;100678.94;;;16.41;86.23
6208;BME280;3137;51.550;7.060;2023-07-31T02:20:39;100678.72;;;16.43;85.94
6208;BME280;3137;51.550;7.060;2023-07-31T02:23:05;100674.38;;;16.42;85.82
6208;BME280;3137;51.550;7.060;2023-07-31T02:25:32;100672.25;;;16.37;85.58
6208;BME280;3137;51.550;7.060;2023-07-31T02:27:58;100678.44;;;16.38;85.54
6208;BME280;3137;51.550;7.060;2023-07-31T02:30:25;100677.31;;;16.47;85.29
6208;BME280;3137;51.550;7.060;2023-07-31T02:32:51;100676.22;;;16.41;85.70
6208;BME280;3137;51.550;7.060;2023-07-31T02:35:17;100668.50;;;16.38;85.76
6208;BME280;3137;51.550;7.060;2023-07-31T02:37:45;100666.91;;;16.44;85.10
6208;BME280;3137;51.550;7.060;2023-07-31T02:40:12;100674.25;;;16.50;85.22
6208;BME280;3137;51.550;7.060;2023-07-31T02:42:38;100675.91;;;16.51;84.75
6208;BME280;3137;51.550;7.060;2023-07-31T02:45:05;100672.13;;;16.45;84.94
6208;BME280;3137;51.550;7.060;2023-07-31T02:47:32;100676.84;;;16.43;84.54
6208;BME280;3137;51.550;7.060;2023-07-31T02:49:58;100668.31;;;16.40;84.66
6208;BME280;3137;51.550;7.060;2023-07-31T02:52:26;100669.78;;;16.42;84.73
6208;BME280;3137;51.550;7.060;2023-07-31T02:54:52;100667.28;;;16.41;84.66
6208;BME280;3137;51.550;7.060;2023-07-31T02:57:18;100665.22;;;16.43;84.32
6208;BME280;3137;51.550;7.060;2023-07-31T02:59:45;100657.53;;;16.40;84.45
6208;BME280;3137;51.550;7.060;2023-07-31T03:02:11;100662.75;;;16.41;84.31
6208;BME280;3137;51.550;7.060;2023-07-31T03:04:39;100666.06;;;16.43;83.43
6208;BME280;3137;51.550;7.060;2023-07-31T03:07:06;100653.81;;;16.41;83.75
6208;BME280;3137;51.550;7.060;2023-07-31T03:09:32;100654.25;;;16.44;83.96
6208;BME280;3137;51.550;7.060;2023-07-31T03:11:59;100653.41;;;16.44;82.87
6208;BME280;3137;51.550;7.060;2023-07-31T03:14:25;100654.88;;;16.46;82.89
6208;BME280;3137;51.550;7.060;2023-07-31T03:16:53;100649.47;;;16.46;83.36
6208;BME280;3137;51.550;7.060;2023-07-31T03:19:20;100652.00;;;16.48;83.38
6208;BME280;3137;51.550;7.060;2023-07-31T03:21:46;100653.41;;;16.44;83.30
6208;BME280;3137;51.550;7.060;2023-07-31T03:24:13;100645.50;;;16.42;83.07
6208;BME280;3137;51.550;7.060;2023-07-31T03:26:39;100651.16;;;16.48;83.20
6208;BME280;3137;51.550;7.060;2023-07-31T03:29:08;100649.47;;;16.46;83.45
6208;BME280;3137;51.550;7.060;2023-07-31T03:31:34;100654.31;;;16.51;83.10
6208;BME280;3137;51.550;7.060;2023-07-31T03:34:01;100658.97;;;16.57;82.64
6208;BME280;3137;51.550;7.060;2023-07-31T03:36:29;100653.72;;;16.56;83.24
6208;BME280;3137;51.550;7.060;2023-07-31T03:38:55;100654.78;;;16.55;83.33
6208;BME280;3137;51.550;7.060;2023-07-31T03:41:22;100658.13;;;16.57;83.52
6208;BME280;3137;51.550;7.060;2023-07-31T03:43:50;100658.00;;;16.65;83.08
6208;BME280;3137;51.550;7.060;2023-07-31T03:46:23;100657.97;;;16.58;83.23
6208;BME280;3137;51.550;7.060;2023-07-31T03:48:50;100650.94;;;16.64;83.00
6208;BME280;3137;51.550;7.060;2023-07-31T03:51:17;100647.63;;;16.62;82.99
6208;BME280;3137;51.550;7.060;2023-07-31T03:53:44;100653.47;;;16.65;82.85
6208;BME280;3137;51.550;7.060;2023-07-31T03:56:10;100649.72;;;16.66;83.15
6208;BME280;3137;51.550;7.060;2023-07-31T03:58:37;100644.34;;;16.66;83.20
6208;BME280;3137;51.550;7.060;2023-07-31T04:01:03;100646.66;;;16.69;83.45
6208;BME280;3137;51.550;7.060;2023-07-31T04:03:30;100643.63;;;16.79;82.56
6208;BME280;3137;51.550;7.060;2023-07-31T04:05:56;100636.94;;;16.75;83.01
6208;BME280;3137;51.550;7.060;2023-07-31T04:08:23;100648.19;;;16.78;83.06
6208;BME280;3137;51.550;7.060;2023-07-31T04:10:50;100631.81;;;16.80;83.00
6208;BME280;3137;51.550;7.060;2023-07-31T04:13:16;100642.66;;;16.86;82.21
6208;BME280;3137;51.550;7.060;2023-07-31T04:15:48;100640.97;;;16.85;82.08
6208;BME280;3137;51.550;7.060;2023-07-31T04:18:15;100642.91;;;16.92;81.87
6208;BME280;3137;51.550;7.060;2023-07-31T04:20:41;100626.69;;;16.92;81.37
6208;BME280;3137;51.550;7.060;2023-07-31T04:23:07;100631.72;;;16.95;81.31
6208;BME280;3137;51.550;7.060;2023-07-31T04:25:34;100623.84;;;17.00;81.25
6208;BME280;3137;51.550;7.060;2023-07-31T04:28:01;100629.84;;;16.95;81.50
6208;BME280;3137;51.550;7.060;2023-07-31T04:30:28;100623.03;;;16.99;81.52
6208;BME280;3137;51.550;7.060;2023-07-31T04:32:54;100619.69;;;16.97;81.58
6208;BME280;3137;51.550;7.060;2023-07-31T04:35:21;100623.59;;;16.95;81.75
6208;BME280;3137;51.550;7.060;2023-07-31T04:37:47;100621.78;;;17.02;81.83
6208;BME280;3137;51.550;7.060;2023-07-31T04:40:15;100620.31;;;16.99;82.06
6208;BME280;3137;51.550;7.060;2023-07-31T04:42:42;100625.31;;;17.02;82.15
6208;BME280;3137;51.550;7.060;2023-07-31T04:45:09;100615.16;;;17.04;82.04
6208;BME280;3137;51.550;7.060;2023-07-31T04:47:35;100613.50;;;17.03;82.69
6208;BME280;3137;51.550;7.060;2023-07-31T04:50:02;100609.75;;;17.04;82.87
6208;BME280;3137;51.550;7.060;2023-07-31T04:52:28;100619.91;;;17.02;83.00
6208;BME280;3137;51.550;7.060;2023-07-31T04:54:55;100620.31;;;16.99;83.54
6208;BME280;3137;51.550;7.060;2023-07-31T04:57:21;100619.28;;;17.00;83.92
6208;BME280;3137;51.550;7.060;2023-07-31T04:59:48;100608.88;;;16.97;84.50
6208;BME280;3137;51.550;7.060;2023-07-31T05:02:16;100609.91;;;16.96;84.63
6208;BME280;3137;51.550;7.060;2023-07-31T05:04:43;100610.28;;;16.93;84.76
6208;BME280;3137;51.550;7.060;2023-07-31T05:07:09;100605.28;;;16.90;85.63
6208;BME280;3137;51.550;7.060;2023-07-31T05:09:35;100597.41;;;16.88;85.70
6208;BME280;3137;51.550;7.060;2023-07-31T05:12:04;100602.19;;;16.93;85.71
6208;BME280;3137;51.550;7.060;2023-07-31T05:14:31;100592.28;;;17.00;85.35
6208;BME280;3137;51.550;7.060;2023-07-31T05:16:57;100592.91;;;17.02;85.51
6208;BME280;3137;51.550;7.060;2023-07-31T05:19:24;100591.00;;;16.96;85.45
6208;BME280;3137;51.550;7.060;2023-07-31T05:21:50;100584.63;;;17.04;85.12
6208;BME280;3137;51.550;7.060;2023-07-31T05:24:17;100590.66;;;17.06;85.00
6208;BME280;3137;51.550;7.060;2023-07-31T05:26:43;100581.22;;;16.95;85.55
6208;BME280;3137;51.550;7.060;2023-07-31T05:29:09;100584.22;;;17.07;85.01
6208;BME280;3137;51.550;7.060;2023-07-31T05:31:36;100578.19;;;17.05;85.29
6208;BME280;3137;51.550;7.060;2023-07-31T05:34:04;100584.38;;;16.99;85.55
6208;BME280;3137;51.550;7.060;2023-07-31T05:36:30;100576.69;;;17.02;85.32
6208;BME280;3137;51.550;7.060;2023-07-31T05:38:57;100571.31;;;17.02;85.48
6208;BME280;3137;51.550;7.060;2023-07-31T05:41:24;100574.00;;;17.02;85.42
6208;BME280;3137;51.550;7.060;2023-07-31T05:43:50;100569.06;;;17.06;85.86
6208;BME280;3137;51.550;7.060;2023-07-31T05:46:17;100570.88;;;16.99;86.38
6208;BME280;3137;51.550;7.060;2023-07-31T05:48:44;100564.53;;;16.85;86.63
6208;BME280;3137;51.550;7.060;2023-07-31T05:51:10;100557.22;;;16.79;87.18
6208;BME280;3137;51.550;7.060;2023-07-31T05:53:37;100567.72;;;16.67;87.57
6208;BME280;3137;51.550;7.060;2023-07-31T05:56:06;100551.53;;;16.67;87.46
6208;BME280;3137;51.550;7.060;2023-07-31T05:58:33;100555.19;;;16.60;88.17
6208;BME280;3137;51.550;7.060;2023-07-31T06:00:59;100552.47;;;16.60;89.08
6208;BME280;3137;51.550;7.060;2023-07-31T06:03:26;100562.13;;;16.69;88.61
6208;BME280;3137;51.550;7.060;2023-07-31T06:05:53;100559.16;;;16.64;88.72
6208;BME280;3137;51.550;7.060;2023-07-31T06:08:19;100553.88;;;16.56;89.31
6208;BME280;3137;51.550;7.060;2023-07-31T06:10:46;100554.66;;;16.50;89.79
6208;BME280;3137;51.550;7.060;2023-07-31T06:13:12;100550.69;;;16.45;90.09
6208;BME280;3137;51.550;7.060;2023-07-31T06:15:39;100544.44;;;16.45;90.13
6208;BME280;3137;51.550;7.060;2023-07-31T06:18:06;100546.25;;;16.38;90.12
6208;BME280;3137;51.550;7.060;2023-07-31T06:20:34;100543.94;;;16.35;90.84
6208;BME280;3137;51.550;7.060;2023-07-31T06:23:01;100545.88;;;16.41;91.11
6208;BME280;3137;51.550;7.060;2023-07-31T06:25:27;100542.97;;;16.42;91.49
6208;BME280;3137;51.550;7.060;2023-07-31T06:27:54;100541.78;;;16.52;91.22
6208;BME280;3137;51.550;7.060;2023-07-31T06:30:20;100540.66;;;16.61;91.00
6208;BME280;3137;51.550;7.060;2023-07-31T06:32:47;100540.47;;;16.62;91.10
6208;BME280;3137;51.550;7.060;2023-07-31T06:35:13;100532.41;;;16.69;90.41
6208;BME280;3137;51.550;7.060;2023-07-31T06:37:40;100533.81;;;16.58;90.97
6208;BME280;3137;51.550;7.060;2023-07-31T06:40:07;100535.09;;;16.62;90.77
6208;BME280;3137;51.550;7.060;2023-07-31T06:42:35;100541.31;;;16.63;90.81
6208;BME280;3137;51.550;7.060;2023-07-31T06:45:02;100533.34;;;16.55;90.89
6208;BME280;3137;51.550;7.060;2023-07-31T06:47:29;100529.97;;;16.53;91.12
6208;BME280;3137;51.550;7.060;2023-07-31T06:49:55;100536.03;;;16.55;91.17
6208;BME280;3137;51.550;7.060;2023-07-31T06:52:22;100519.25;;;16.59;90.94
6208;BME280;3137;51.550;7.060;2023-07-31T06:55:01;100530.81;;;16.53;90.97
6208;BME280;3137;51.550;7.060;2023-07-31T06:57:29;100520.09;;;16.60;90.44
6208;BME280;3137;51.550;7.060;2023-07-31T06:59:55;100527.94;;;16.55;90.78
6208;BME280;3137;51.550;7.060;2023-07-31T07:02:22;100540.66;;;16.61;90.75
6208;BME280;3137;51.550;7.060;2023-07-31T07:04:49;100531.09;;;16.58;90.73
6208;BME280;3137;51.550;7.060;2023-07-31T07:07:16;100532.13;;;16.57;90.69
6208;BME280;3137;51.550;7.060;2023-07-31T07:09:43;100541.69;;;16.60;90.80
6208;BME280;3137;51.550;7.060;2023-07-31T07:12:09;100525.16;;;16.69;90.57
6208;BME280;3137;51.550;7.060;2023-07-31T07:14:36;100523.13;;;16.71;90.33
6208;BME280;3137;51.550;7.060;2023-07-31T07:17:02;100520.75;;;16.62;90.74
6208;BME280;3137;51.550;7.060;2023-07-31T07:19:29;100526.78;;;16.64;90.71
6208;BME280;3137;51.550;7.060;2023-07-31T07:21:55;100523.69;;;16.67;90.79
6208;BME280;3137;51.550;7.060;2023-07-31T07:24:22;100526.03;;;16.55;90.99
6208;BME280;3137;51.550;7.060;2023-07-31T07:26:49;100519.47;;;16.58;91.26
6208;BME280;3137;51.550;7.060;2023-07-31T07:29:15;100517.41;;;16.60;91.25
6208;BME280;3137;51.550;7.060;2023-07-31T07:31:41;100514.31;;;16.63;91.24
6208;BME280;3137;51.550;7.060;2023-07-31T07:34:08;100515.16;;;16.63;91.24
6208;BME280;3137;51.550;7.060;2023-07-31T07:36:34;100519.13;;;16.67;90.93
6208;BME280;3137;51.550;7.060;2023-07-31T07:39:01;100505.56;;;16.61;91.77
6208;BME280;3137;51.550;7.060;2023-07-31T07:41:27;100517.50;;;16.73;90.91
6208;BME280;3137;51.550;7.060;2023-07-31T07:43:54;100515.84;;;16.72;91.16
6208;BME280;3137;51.550;7.060;2023-07-31T07:46:20;100520.59;;;16.70;91.47
6208;BME280;3137;51.550;7.060;2023-07-31T07:48:47;100513.34;;;16.70;91.22
6208;BME280;3137;51.550;7.060;2023-07-31T07:51:13;100517.50;;;16.73;91.18
6208;BME280;3137;51.550;7.060;2023-07-31T07:53:40;100521.63;;;16.69;91.02
6208;BME280;3137;51.550;7.060;2023-07-31T07:56:06;100520.88;;;16.81;90.63
6208;BME280;3137;51.550;7.060;2023-07-31T07:58:33;100512.69;;;16.68;91.03
6208;BME280;3137;51.550;7.060;2023-07-31T08:00:59;100507.50;;;16.67;91.47
6208;BME280;3137;51.550;7.060;2023-07-31T08:03:26;100518.75;;;16.70;91.33
6208;BME280;3137;51.550;7.060;2023-07-31T08:05:58;100508.38;;;16.74;91.33
6208;BME280;3137;51.550;7.060;2023-07-31T08:08:24;100503.38;;;16.71;91.05
6208;BME280;3137;51.550;7.060;2023-07-31T08:10:51;100511.25;;;16.72;90.76
6208;BME280;3137;51.550;7.060;2023-07-31T08:13:17;100512.69;;;16.68;90.91
6208;BME280;3137;51.550;7.060;2023-07-31T08:15:44;100502.28;;;16.65;91.11
6208;BME280;3137;51.550;7.060;2023-07-31T08:18:10;100503.13;;;16.66;91.00
6208;BME280;3137;51.550;7.060;2023-07-31T08:20:40;100504.38;;;16.63;90.95
6208;BME280;3137;51.550;7.060;2023-07-31T08:23:06;100491.47;;;16.59;90.66
6208;BME280;3137;51.550;7.060;2023-07-31T08:25:36;100498.00;;;16.50;91.49
6208;BME280;3137;51.550;7.060;2023-07-31T08:28:03;100495.91;;;16.52;91.76
6208;BME280;3137;51.550;7.060;2023-07-31T08:30:31;100502.25;;;16.59;91.18
6208;BME280;3137;51.550;7.060;2023-07-31T08:32:58;100494.16;;;16.59;91.23
6208;BME280;3137;51.550;7.060;2023-07-31T08:35:25;100498.72;;;16.58;91.12
6208;BME280;3137;51.550;7.060;2023-07-31T08:37:52;100497.03;;;16.57;91.20
6208;BME280;3137;51.550;7.060;2023-07-31T08:40:18;100492.19;;;16.53;91.29
6208;BME280;3137;51.550;7.060;2023-07-31T08:42:46;100488.63;;;16.45;91.39
6208;BME280;3137;51.550;7.060;2023-07-31T08:45:17;100487.56;;;16.46;91.32
6208;BME280;3137;51.550;7.060;2023-07-31T08:47:50;100483.59;;;16.42;91.48
6208;BME280;3137;51.550;7.060;2023-07-31T08:50:18;100472.81;;;16.42;91.46
6208;BME280;3137;51.550;7.060;2023-07-31T08:52:47;100492.16;;;16.46;91.12
6208;BME280;3137;51.550;7.060;2023-07-31T08:55:14;100488.56;;;16.39;91.29
6208;BME280;3137;51.550;7.060;2023-07-31T08:57:41;100485.66;;;16.40;91.27
6208;BME280;3137;51.550;7.060;2023-07-31T09:00:10;100489.97;;;16.35;91.30
6208;BME280;3137;51.550;7.060;2023-07-31T09:02:48;100494.09;;;16.31;91.96
6208;BME280;3137;51.550;7.060;2023-07-31T09:05:19;100502.63;;;16.34;91.88
6208;BME280;3137;51.550;7.060;2023-07-31T09:07:49;100489.13;;;16.34;92.19
6208;BME280;3137;51.550;7.060;2023-07-31T09:10:16;100494.34;;;16.36;92.36
6208;BME280;3137;51.550;7.060;2023-07-31T09:12:43;100491.06;;;16.40;92.49
6208;BME280;3137;51.550;7.060;2023-07-31T09:15:11;100487.34;;;16.41;92.30
6208;BME280;3137;51.550;7.060;2023-07-31T09:18:01;100487.13;;;16.43;92.25
6208;BME280;3137;51.550;7.060;2023-07-31T09:20:28;100484.41;;;16.36;92.11
6208;BME280;3137;51.550;7.060;2023-07-31T09:22:55;100487.34;;;16.41;91.64
6208;BME280;3137;51.550;7.060;2023-07-31T09:25:26;100488.88;;;16.51;91.90
6208;BME280;3137;51.550;7.060;2023-07-31T09:28:01;100479.94;;;16.50;91.75
6208;BME280;3137;51.550;7.060;2023-07-31T09:30:27;100481.22;;;16.54;91.75
6208;BME280;3137;51.550;7.060;2023-07-31T09:33:02;100476.44;;;16.56;91.59
6208;BME280;3137;51.550;7.060;2023-07-31T09:35:31;100477.13;;;16.58;91.61
6208;BME280;3137;51.550;7.060;2023-07-31T09:38:00;100481.41;;;16.53;92.00
6208;BME280;3137;51.550;7.060;2023-07-31T09:40:29;100465.19;;;16.46;92.11
6208;BME280;3137;51.550;7.060;2023-07-31T09:42:58;100462.25;;;16.48;92.28
6208;BME280;3137;51.550;7.060;2023-07-31T09:45:25;100474.53;;;16.50;92.47
6208;BME280;3137;51.550;7.060;2023-07-31T09:48:10;100472.25;;;16.75;91.66
6208;BME280;3137;51.550;7.060;2023-07-31T09:50:38;100474.91;;;16.68;92.17
6208;BME280;3137;51.550;7.060;2023-07-31T09:53:06;100466.78;;;16.68;92.19
6208;BME280;3137;51.550;7.060;2023-07-31T09:55:33;100456.59;;;16.64;92.34
6208;BME280;3137;51.550;7.060;2023-07-31T09:58:05;100465.59;;;16.71;92.12
6208;BME280;3137;51.550;7.060;2023-07-31T10:00:32;100466.59;;;16.63;92.29
6208;BME280;3137;51.550;7.060;2023-07-31T10:03:07;100467.59;;;16.62;92.72
6208;BME280;3137;51.550;7.060;2023-07-31T10:05:40;100464.50;;;16.65;92.33
6208;BME280;3137;51.550;7.060;2023-07-31T10:08:10;100449.75;;;16.68;92.38
6208;BME280;3137;51.550;7.060;2023-07-31T10:10:45;100453.13;;;16.70;92.44
6208;BME280;3137;51.550;7.060;2023-07-31T10:13:13;100447.72;;;16.70;92.57
6208;BME280;3137;51.550;7.060;2023-07-31T10:15:40;100463.06;;;16.69;92.30
6208;BME280;3137;51.550;7.060;2023-07-31T10:18:11;100457.50;;;16.71;92.28
6208;BME280;3137;51.550;7.060;2023-07-31T10:20:38;100458.16;;;16.79;91.83
6208;BME280;3137;51.550;7.060;2023-07-31T10:23:06;100455.03;;;16.76;92.48
6208;BME280;3137;51.550;7.060;2023-07-31T10:25:34;100462.50;;;16.80;92.31
6208;BME280;3137;51.550;7.060;2023-07-31T10:28:00;100456.25;;;16.73;92.75
6208;BME280;3137;51.550;7.060;2023-07-31T10:30:32;100455.47;;;16.79;92.39
6208;BME280;3137;51.550;7.060;2023-07-31T10:33:00;100457.19;;;16.94;92.20
6208;BME280;3137;51.550;7.060;2023-07-31T10:35:27;100452.59;;;16.87;91.88
6208;BME280;3137;51.550;7.060;2023-07-31T10:37:54;100458.41;;;16.84;91.76
6208;BME280;3137;51.550;7.060;2023-07-31T10:40:25;100453.19;;;16.83;92.01
6208;BME280;3137;51.550;7.060;2023-07-31T10:45:36;100443.59;;;16.80;91.99
6208;BME280;3137;51.550;7.060;2023-07-31T10:48:05;100458.00;;;16.87;91.56
6208;BME280;3137;51.550;7.060;2023-07-31T10:50:55;100450.94;;;16.93;91.61
6208;BME280;3137;51.550;7.060;2023-07-31T10:53:29;100450.94;;;16.93;91.42
6208;BME280;3137;51.550;7.060;2023-07-31T10:56:01;100451.00;;;17.00;91.64
6208;BME280;3137;51.550;7.060;2023-07-31T10:58:27;100449.75;;;17.02;91.60
6208;BME280;3137;51.550;7.060;2023-07-31T11:00:55;100444.16;;;16.97;91.52
6208;BME280;3137;51.550;7.060;2023-07-31T11:03:26;100439.38;;;16.99;91.79
6208;BME280;3137;51.550;7.060;2023-07-31T11:06:02;100447.50;;;17.06;91.58
6208;BME280;3137;51.550;7.060;2023-07-31T11:08:35;100451.66;;;17.08;91.42
6208;BME280;3137;51.550;7.060;2023-07-31T11:13:29;100444.03;;;17.18;90.69
6208;BME280;3137;51.550;7.060;2023-07-31T11:15:56;100448.22;;;17.27;90.29
6208;BME280;3137;51.550;7.060;2023-07-31T11:18:22;100448.22;;;17.27;90.29
6208;BME280;3137;51.550;7.060;2023-07-31T11:20:49;100448.03;;;17.29;90.39
6208;BME280;3137;51.550;7.060;2023-07-31T11:23:17;100441.59;;;17.30;90.49
6208;BME280;3137;51.550;7.060;2023-07-31T11:25:44;100450.09;;;17.27;89.84
6208;BME280;3137;51.550;7.060;2023-07-31T11:28:16;100451.16;;;17.32;90.02
6208;BME280;3137;51.550;7.060;2023-07-31T11:30:44;100443.69;;;17.41;89.95
6208;BME280;3137;51.550;7.060;2023-07-31T11:33:12;100447.66;;;17.45;89.76
6208;BME280;3137;51.550;7.060;2023-07-31T11:35:45;100445.56;;;17.41;89.67
6208;BME280;3137;51.550;7.060;2023-07-31T11:38:21;100439.16;;;17.48;89.06
6208;BME280;3137;51.550;7.060;2023-07-31T11:40:49;100428.53;;;17.47;89.08
6208;BME280;3137;51.550;7.060;2023-07-31T11:43:15;100426.69;;;17.47;89.39
6208;BME280;3137;51.550;7.060;2023-07-31T11:45:47;100432.91;;;17.48;89.38
6208;BME280;3137;51.550;7.060;2023-07-31T11:48:21;100435.03;;;17.52;89.63
6208;BME280;3137;51.550;7.060;2023-07-31T11:50:50;100424.88;;;17.61;89.13
6208;BME280;3137;51.550;7.060;2023-07-31T11:53:20;100430.88;;;17.56;89.13
6208;BME280;3137;51.550;7.060;2023-07-31T11:55:48;100426.47;;;17.49;89.52
6208;BME280;3137;51.550;7.060;2023-07-31T11:58:16;100429.81;;;17.57;89.52
6208;BME280;3137;51.550;7.060;2023-07-31T12:00:43;100435.44;;;17.56;89.95
6208;BME280;3137;51.550;7.060;2023-07-31T12:03:09;100429.66;;;17.59;89.93
6208;BME280;3137;51.550;7.060;2023-07-31T12:05:37;100434.78;;;17.54;90.26
6208;BME280;3137;51.550;7.060;2023-07-31T12:08:11;100441.09;;;17.61;89.74
6208;BME280;3137;51.550;7.060;2023-07-31T12:10:38;100427.97;;;17.58;89.29
6208;BME280;3137;51.550;7.060;2023-07-31T12:13:19;100437.91;;;17.51;89.84
6208;BME280;3137;51.550;7.060;2023-07-31T12:15:46;100421.28;;;17.54;89.94
6208;BME280;3137;51.550;7.060;2023-07-31T12:18:14;100414.88;;;17.61;90.19
6208;BME280;3137;51.550;7.060;2023-07-31T12:20:45;100419.91;;;17.64;89.65
6208;BME280;3137;51.550;7.060;2023-07-31T12:23:19;100424.69;;;17.69;89.70
6208;BME280;3137;51.550;7.060;2023-07-31T12:26:20;100419.06;;;17.70;89.12
6208;BME280;3137;51.550;7.060;2023-07-31T12:28:48;100431.53;;;17.65;89.23
6208;BME280;3137;51.550;7.060;2023-07-31T12:31:21;100425.94;;;17.73;89.63
6208;BME280;3137;51.550;7.060;2023-07-31T12:33:49;100418.41;;;17.62;89.64
6208;BME280;3137;51.550;7.060;2023-07-31T12:36:20;100424.47;;;17.64;89.84
6208;BME280;3137;51.550;7.060;2023-07-31T12:38:47;100419.91;;;17.64;90.42
6208;BME280;3137;51.550;7.060;2023-07-31T12:41:13;100417.19;;;17.64;90.25
6208;BME280;3137;51.550;7.060;2023-07-31T12:43:41;100418.84;;;17.65;90.60
6208;BME280;3137;51.550;7.060;2023-07-31T12:46:09;100412.00;;;17.69;90.06
6208;BME280;3137;51.550;7.060;2023-07-31T12:48:37;100410.53;;;17.67;90.16
6208;BME280;3137;51.550;7.060;2023-07-31T12:51:04;100406.16;;;17.66;90.45
6208;BME280;3137;51.550;7.060;2023-07-31T12:53:30;100411.59;;;17.72;90.10
6208;BME280;3137;51.550;7.060;2023-07-31T12:55:57;100413.69;;;17.77;89.73
6208;BME280;3137;51.550;7.060;2023-07-31T12:58:24;100404.72;;;17.76;89.81
6208;BME280;3137;51.550;7.060;2023-07-31T13:00:51;100405.16;;;17.80;89.75
6208;BME280;3137;51.550;7.060;2023-07-31T13:03:17;100391.84;;;17.85;89.80
6208;BME280;3137;51.550;7.060;2023-07-31T13:05:44;100396.84;;;17.82;89.91
6208;BME280;3137;51.550;7.060;2023-07-31T13:08:11;100384.97;;;17.89;89.62
6208;BME280;3137;51.550;7.060;2023-07-31T13:10:38;100382.06;;;17.84;90.05
6208;BME280;3137;51.550;7.060;2023-07-31T13:13:04;100372.47;;;17.88;89.49
6208;BME280;3137;51.550;7.060;2023-07-31T13:15:31;100372.47;;;17.88;89.28
6208;BME280;3137;51.550;7.060;2023-07-31T13:17:57;100365.00;;;17.97;89.24
6208;BME280;3137;51.550;7.060;2023-07-31T13:20:24;100359.16;;;17.87;89.82
6208;BME280;3137;51.550;7.060;2023-07-31T13:22:50;100344.41;;;17.89;89.55